sim
Sign-in with your pilot id or email,
or register
Callsign
Passwort

Schedule Details

Flight Number: OEF9159
Departure: Boston Logan International Airport (KBOS) at 05:00
Arrival: Munich Airport (EDDM) at 11:40

Weather Information
Getting current METAR information for KBOS 190554Z 34010KT 10SM CLR 10/M01 A3016 RMK AO2 SLP213 T01001006 10144 20100 53020
Getting current METAR information for EDDM 190550Z VRB01KT CAVOK 05/04 Q1020 NOSIG

Schedule Frequency

Route Map